createdAt,value
2022-08-04T00:02:06.714Z,21.80
2022-08-04T00:04:14.313Z,21.70
2022-08-04T00:06:22.327Z,21.60
2022-08-04T00:08:33.647Z,21.60
2022-08-04T00:10:38.863Z,21.60
2022-08-04T00:15:05.606Z,21.60
2022-08-04T00:17:09.236Z,21.50
2022-08-04T00:19:15.562Z,21.50
2022-08-04T00:21:22.415Z,21.40
2022-08-04T00:23:27.897Z,21.30
2022-08-04T00:25:33.323Z,21.30
2022-08-04T00:27:36.904Z,21.10
2022-08-04T00:29:40.665Z,20.90
2022-08-04T00:31:57.142Z,20.80
2022-08-04T00:33:50.881Z,20.70
2022-08-04T00:35:56.178Z,20.60
2022-08-04T00:38:00.583Z,20.70
2022-08-04T00:40:09.615Z,20.70
2022-08-04T00:42:26.660Z,20.70
2022-08-04T00:44:37.257Z,20.70
2022-08-04T00:47:01.419Z,20.80
2022-08-04T00:49:35.841Z,20.80
2022-08-04T00:51:44.206Z,20.80
2022-08-04T00:53:55.111Z,20.80
2022-08-04T00:56:06.808Z,20.90
2022-08-04T00:58:23.063Z,20.90
2022-08-04T01:00:28.797Z,20.90
2022-08-04T01:05:03.634Z,21.00
2022-08-04T01:07:25.047Z,21.10
2022-08-04T01:09:34.748Z,21.10
2022-08-04T01:17:03.668Z,21.00
2022-08-04T01:19:11.196Z,20.90
2022-08-04T01:21:58.931Z,20.90
2022-08-04T01:24:33.900Z,20.80
2022-08-04T01:27:01.347Z,20.80
2022-08-04T01:29:09.609Z,20.70
2022-08-04T01:31:17.086Z,20.80
2022-08-04T01:33:22.580Z,20.80
2022-08-04T01:35:46.862Z,20.70
2022-08-04T01:40:09.080Z,20.40
2022-08-04T01:42:18.761Z,20.40
2022-08-04T01:44:21.545Z,20.40
2022-08-04T01:46:27.808Z,20.50
2022-08-04T01:48:32.145Z,20.50
2022-08-04T01:50:37.693Z,20.50
2022-08-04T01:52:47.694Z,20.50
2022-08-04T01:54:50.681Z,20.50
2022-08-04T01:56:55.840Z,20.60
2022-08-04T01:59:02.626Z,20.50
2022-08-04T02:01:09.193Z,20.60
2022-08-04T02:03:14.053Z,20.60
2022-08-04T02:05:19.562Z,20.50
2022-08-04T02:07:30.715Z,20.50
2022-08-04T02:09:54.681Z,20.40
2022-08-04T02:14:12.083Z,20.40
2022-08-04T02:16:19.612Z,20.40
2022-08-04T02:18:27.159Z,20.40
2022-08-04T02:20:37.855Z,20.40
2022-08-04T02:22:46.044Z,20.40
2022-08-04T02:24:52.554Z,20.40
2022-08-04T02:26:58.516Z,20.40
2022-08-04T02:31:28.691Z,20.40
2022-08-04T02:33:36.629Z,20.40
2022-08-04T02:35:43.747Z,20.40
2022-08-04T02:37:50.321Z,20.40
2022-08-04T02:42:13.079Z,20.30
2022-08-04T02:44:20.388Z,20.40
2022-08-04T02:46:24.603Z,20.40
2022-08-04T02:48:31.616Z,20.40
2022-08-04T02:50:37.218Z,20.40
2022-08-04T02:52:42.351Z,20.30
2022-08-04T02:54:47.534Z,20.40
2022-08-04T02:56:52.956Z,20.40
2022-08-04T02:59:00.348Z,20.40
2022-08-04T03:01:04.495Z,20.40
2022-08-04T03:03:16.198Z,20.40
2022-08-04T03:05:22.635Z,20.50
2022-08-04T03:07:59.444Z,20.50
2022-08-04T03:10:24.923Z,20.50
2022-08-04T03:12:44.520Z,20.40
2022-08-04T03:15:13.341Z,20.30
2022-08-04T03:20:30.508Z,20.20
2022-08-04T03:23:23.911Z,20.10
2022-08-04T03:28:31.051Z,20.10
2022-08-04T03:30:40.558Z,20.20
2022-08-04T03:33:09.459Z,20.10
2022-08-04T03:35:27.618Z,20.20
2022-08-04T03:37:41.431Z,20.20
2022-08-04T03:42:53.812Z,20.00
2022-08-04T03:45:37.226Z,20.00
2022-08-04T03:47:53.315Z,19.90
2022-08-04T03:50:31.755Z,19.90
2022-08-04T03:53:37.873Z,19.80
2022-08-04T03:58:30.672Z,19.70
2022-08-04T04:00:40.429Z,19.60
2022-08-04T04:03:28.751Z,19.60
2022-08-04T04:08:18.623Z,19.70
2022-08-04T04:10:29.059Z,19.70
2022-08-04T04:13:06.951Z,19.80
2022-08-04T04:15:20.826Z,19.90
2022-08-04T04:17:50.788Z,19.90
2022-08-04T04:20:23.009Z,19.90
2022-08-04T04:22:38.181Z,20.00
2022-08-04T04:24:59.616Z,20.00
2022-08-04T04:27:11.082Z,20.00
2022-08-04T04:29:43.384Z,20.00
2022-08-04T04:34:37.867Z,19.80
2022-08-04T04:39:10.775Z,19.70
2022-08-04T04:41:24.484Z,19.70
2022-08-04T04:43:50.768Z,19.60
2022-08-04T04:45:56.326Z,19.60
2022-08-04T04:48:08.408Z,19.60
2022-08-04T04:50:16.716Z,19.60
2022-08-04T04:52:24.328Z,19.70
2022-08-04T04:54:32.855Z,19.70
2022-08-04T04:56:40.906Z,19.80
2022-08-04T04:58:44.501Z,19.80
2022-08-04T05:01:30.340Z,19.80
2022-08-04T05:03:47.149Z,19.80
2022-08-04T05:11:56.870Z,19.70
2022-08-04T05:14:39.069Z,19.70
2022-08-04T05:16:16.040Z,19.70
2022-08-04T05:18:24.532Z,19.70
2022-08-04T05:22:50.806Z,19.90
2022-08-04T05:25:00.461Z,19.90
2022-08-04T05:27:07.898Z,20.00
2022-08-04T05:31:34.848Z,20.10
2022-08-04T05:33:42.716Z,20.10
2022-08-04T05:36:18.374Z,20.20
2022-08-04T05:38:01.583Z,20.30
2022-08-04T05:40:08.028Z,20.20
2022-08-04T05:42:12.649Z,20.30
2022-08-04T05:44:18.633Z,20.40
2022-08-04T05:46:22.946Z,20.40
2022-08-04T05:48:27.518Z,20.40
2022-08-04T05:50:33.696Z,20.50
2022-08-04T05:52:38.826Z,20.60
2022-08-04T05:54:43.686Z,20.70
2022-08-04T05:56:47.903Z,20.70
2022-08-04T05:58:53.116Z,20.80
2022-08-04T06:00:57.036Z,20.80
2022-08-04T06:03:01.992Z,20.80
2022-08-04T06:07:22.603Z,20.90
2022-08-04T06:09:26.592Z,20.90
2022-08-04T06:11:31.098Z,20.90
2022-08-04T06:13:47.844Z,20.90
2022-08-04T06:15:47.893Z,20.90
2022-08-04T06:19:57.671Z,21.00
2022-08-04T06:20:18.962Z,21.10
2022-08-04T06:24:31.039Z,21.10
2022-08-04T06:26:36.051Z,21.20
2022-08-04T06:28:42.544Z,21.20
2022-08-04T06:30:49.273Z,21.30
2022-08-04T06:33:03.420Z,21.40
2022-08-04T06:35:02.576Z,21.50
2022-08-04T06:39:25.922Z,21.80
2022-08-04T06:41:31.705Z,21.90
2022-08-04T06:43:42.846Z,22.00
2022-08-04T06:45:43.971Z,22.00
2022-08-04T06:47:48.557Z,22.20
2022-08-04T06:51:26.237Z,22.20
2022-08-04T06:52:02.984Z,22.30
2022-08-04T06:54:06.625Z,22.40
2022-08-04T06:56:11.030Z,22.50
2022-08-04T06:58:17.114Z,22.60
2022-08-04T07:00:22.647Z,22.70
2022-08-04T07:02:30.860Z,22.90
2022-08-04T07:04:34.785Z,22.90
2022-08-04T07:06:38.819Z,23.00
2022-08-04T07:11:02.305Z,23.30
2022-08-04T07:13:07.196Z,23.40
2022-08-04T07:15:14.247Z,23.40
2022-08-04T07:17:18.631Z,23.50
2022-08-04T07:21:39.356Z,23.60
2022-08-04T07:23:44.861Z,23.70
2022-08-04T07:25:58.933Z,23.80
2022-08-04T07:27:57.753Z,23.90
2022-08-04T07:30:02.568Z,24.00
2022-08-04T07:32:10.392Z,24.20
2022-08-04T07:34:20.952Z,24.30
2022-08-04T07:36:19.949Z,24.30
2022-08-04T07:38:27.779Z,24.50
2022-08-04T07:40:29.402Z,24.70
2022-08-04T07:42:33.596Z,24.90
2022-08-04T07:44:38.465Z,25.20
2022-08-04T07:46:42.701Z,25.40
2022-08-04T07:48:46.553Z,25.70
2022-08-04T07:50:50.686Z,26.00
2022-08-04T07:53:15.604Z,26.10
2022-08-04T07:55:01.118Z,26.40
2022-08-04T07:57:04.971Z,26.50
2022-08-04T07:59:09.319Z,26.70
2022-08-04T08:03:29.033Z,27.50
2022-08-04T08:05:33.928Z,27.80
2022-08-04T08:07:50.349Z,28.00
2022-08-04T08:09:45.332Z,28.30
2022-08-04T08:12:36.858Z,28.50
2022-08-04T08:13:56.283Z,28.70
2022-08-04T08:16:02.714Z,29.00
2022-08-04T08:18:06.705Z,29.30
2022-08-04T08:20:12.093Z,29.60
2022-08-04T08:22:17.591Z,29.80
2022-08-04T08:24:21.284Z,30.10
2022-08-04T08:26:25.282Z,30.20
2022-08-04T08:28:29.280Z,30.50
2022-08-04T08:30:34.027Z,30.80
2022-08-04T08:32:37.619Z,31.00
2022-08-04T08:34:42.725Z,31.10
2022-08-04T08:36:50.715Z,31.10
2022-08-04T08:41:35.541Z,31.50
2022-08-04T08:44:04.463Z,31.60
2022-08-04T08:46:02.144Z,31.60
2022-08-04T08:48:55.907Z,31.80
2022-08-04T08:51:18.990Z,32.00
2022-08-04T08:53:36.551Z,32.40
2022-08-04T08:55:48.411Z,32.40
2022-08-04T08:58:05.947Z,32.60
2022-08-04T09:03:09.007Z,32.90
2022-08-04T09:07:56.740Z,33.30
2022-08-04T09:10:14.813Z,33.40
2022-08-04T09:14:45.650Z,33.50
2022-08-04T09:16:53.756Z,33.60
2022-08-04T09:19:02.508Z,33.60
2022-08-04T09:21:12.797Z,33.70
2022-08-04T09:23:21.480Z,33.60
2022-08-04T09:27:49.403Z,33.10
2022-08-04T09:32:19.140Z,32.70
2022-08-04T09:34:30.242Z,32.70
2022-08-04T09:39:00.798Z,32.90
2022-08-04T09:44:01.201Z,33.10
2022-08-04T09:48:05.799Z,33.60
2022-08-04T09:50:17.513Z,33.80
2022-08-04T09:52:27.974Z,33.90
2022-08-04T09:54:40.885Z,33.90
2022-08-04T09:56:49.296Z,34.10
2022-08-04T09:58:59.080Z,34.50
2022-08-04T10:01:05.824Z,34.60
2022-08-04T10:03:17.509Z,34.70
2022-08-04T10:08:04.733Z,34.90
2022-08-04T10:10:11.272Z,35.20
2022-08-04T10:12:26.510Z,35.10
2022-08-04T10:16:55.835Z,35.10
2022-08-04T10:19:08.323Z,35.10
2022-08-04T10:21:15.379Z,35.10
2022-08-04T10:27:57.837Z,35.30
2022-08-04T10:32:25.604Z,35.50
2022-08-04T10:36:52.107Z,35.40
2022-08-04T10:41:19.533Z,35.00
2022-08-04T10:45:44.999Z,35.00
2022-08-04T10:50:14.526Z,35.10
2022-08-04T10:54:42.128Z,35.20
2022-08-04T10:59:06.088Z,35.30
2022-08-04T11:03:33.423Z,35.80
2022-08-04T11:05:43.992Z,35.90
2022-08-04T11:07:50.488Z,36.00
2022-08-04T11:09:54.098Z,35.80
2022-08-04T11:14:18.228Z,35.60
2022-08-04T11:18:45.893Z,34.60
2022-08-04T11:23:09.069Z,34.20
2022-08-04T11:34:37.880Z,34.70
2022-08-04T11:39:02.055Z,34.50
2022-08-04T11:44:02.766Z,34.30
2022-08-04T11:47:51.373Z,34.90
2022-08-04T11:52:14.762Z,35.30
2022-08-04T11:56:38.057Z,34.90
2022-08-04T12:01:01.673Z,34.70
2022-08-04T12:03:14.456Z,34.70
2022-08-04T12:07:45.518Z,34.80
2022-08-04T12:09:54.950Z,34.70
2022-08-04T12:14:23.163Z,34.50
2022-08-04T12:18:45.471Z,34.50
2022-08-04T12:20:54.637Z,34.50
2022-08-04T12:25:18.123Z,34.80
2022-08-04T12:32:01.173Z,34.60
2022-08-04T12:34:09.131Z,34.60
2022-08-04T12:38:34.583Z,34.70
2022-08-04T12:43:00.172Z,34.70
2022-08-04T12:47:29.200Z,34.80
2022-08-04T12:52:07.417Z,34.60
2022-08-04T12:53:53.869Z,34.40
2022-08-04T12:58:42.344Z,33.80
2022-08-04T13:00:34.087Z,33.60
2022-08-04T13:02:39.901Z,33.40
2022-08-04T13:04:50.376Z,33.30
2022-08-04T13:06:56.431Z,33.10
2022-08-04T13:09:06.803Z,33.00
2022-08-04T13:11:14.656Z,32.90
2022-08-04T13:13:20.308Z,32.80
2022-08-04T13:15:26.264Z,32.70
2022-08-04T13:19:58.220Z,32.50
2022-08-04T13:22:05.598Z,32.40
2022-08-04T13:24:20.970Z,32.40
2022-08-04T13:26:44.449Z,32.30
2022-08-04T13:28:26.628Z,32.40
2022-08-04T13:30:33.012Z,32.50
2022-08-04T13:32:37.100Z,32.60
2022-08-04T13:34:49.535Z,32.50
2022-08-04T13:36:49.972Z,32.50
2022-08-04T13:38:55.939Z,32.40
2022-08-04T13:41:03.083Z,32.30
2022-08-04T13:43:08.588Z,32.20
2022-08-04T13:45:15.591Z,32.10
2022-08-04T13:47:23.772Z,32.00
2022-08-04T13:49:42.781Z,31.90
2022-08-04T13:53:55.961Z,31.80
2022-08-04T13:56:00.860Z,31.70
2022-08-04T13:58:08.023Z,31.50
2022-08-04T14:00:15.221Z,31.40
2022-08-04T14:02:28.029Z,31.30
2022-08-04T14:04:34.531Z,31.30
2022-08-04T14:06:44.820Z,31.20
2022-08-04T14:08:54.651Z,31.20
2022-08-04T14:10:58.565Z,31.20
2022-08-04T14:13:04.858Z,31.20
2022-08-04T14:15:13.324Z,31.10
2022-08-04T14:17:20.916Z,31.00
2022-08-04T14:19:26.917Z,31.00
2022-08-04T14:21:31.412Z,31.00
2022-08-04T14:23:48.527Z,31.00
2022-08-04T14:25:52.650Z,30.80
2022-08-04T14:27:57.246Z,30.70
2022-08-04T14:30:00.812Z,30.60
2022-08-04T14:32:12.643Z,30.60
2022-08-04T14:34:17.965Z,30.60
2022-08-04T14:36:22.377Z,30.60
2022-08-04T14:38:26.957Z,30.70
2022-08-04T14:40:33.327Z,30.70
2022-08-04T14:42:54.577Z,30.60
2022-08-04T14:44:56.087Z,30.70
2022-08-04T14:46:59.651Z,30.70
2022-08-04T14:49:11.385Z,30.90
2022-08-04T14:51:16.022Z,31.00
2022-08-04T14:53:21.794Z,31.00
2022-08-04T14:55:25.700Z,31.00
2022-08-04T14:57:29.238Z,31.00
2022-08-04T14:59:44.179Z,30.90
2022-08-04T15:02:01.031Z,31.00
2022-08-04T15:03:57.861Z,30.90
2022-08-04T15:06:09.479Z,30.80
2022-08-04T15:08:08.317Z,30.70
2022-08-04T15:10:13.586Z,30.70
2022-08-04T15:12:17.296Z,30.70
2022-08-04T15:14:37.586Z,30.80
2022-08-04T15:16:29.287Z,30.70
2022-08-04T15:18:33.144Z,30.70
2022-08-04T15:20:38.699Z,30.70
2022-08-04T15:22:42.297Z,30.70
2022-08-04T15:24:52.187Z,30.60
2022-08-04T15:26:54.557Z,30.60
2022-08-04T15:29:03.039Z,30.50
2022-08-04T15:31:10.510Z,30.50
2022-08-04T15:33:22.216Z,30.60
2022-08-04T15:35:28.114Z,30.50
2022-08-04T15:37:32.003Z,30.50
2022-08-04T15:39:39.838Z,30.50
2022-08-04T15:41:55.242Z,30.40
2022-08-04T15:44:01.339Z,30.40
2022-08-04T15:46:43.054Z,30.40
2022-08-04T15:48:28.411Z,30.30
2022-08-04T15:50:32.615Z,30.30
2022-08-04T15:53:01.004Z,30.20
2022-08-04T15:55:32.372Z,30.10
2022-08-04T16:00:15.421Z,30.00
2022-08-04T16:05:36.121Z,29.90
2022-08-04T16:10:37.593Z,29.60
2022-08-04T16:13:02.534Z,29.60
2022-08-04T16:15:39.093Z,29.50
2022-08-04T16:17:43.174Z,29.50
2022-08-04T16:19:59.465Z,29.40
2022-08-04T16:22:04.094Z,29.40
2022-08-04T16:24:19.697Z,29.40
2022-08-04T16:26:54.974Z,29.30
2022-08-04T16:28:53.776Z,29.40
2022-08-04T16:31:02.299Z,29.30
2022-08-04T16:33:08.889Z,29.30
2022-08-04T16:35:26.961Z,29.30
2022-08-04T16:37:35.419Z,29.30
2022-08-04T16:39:49.975Z,29.20
2022-08-04T16:44:52.337Z,29.30
2022-08-04T16:49:07.318Z,29.30
2022-08-04T16:51:13.731Z,29.20
2022-08-04T16:53:53.897Z,29.20
2022-08-04T16:55:27.040Z,29.10
2022-08-04T16:57:31.662Z,29.00
2022-08-04T16:59:36.404Z,28.90
2022-08-04T17:01:46.407Z,29.00
2022-08-04T17:06:10.952Z,28.90
2022-08-04T17:08:31.828Z,28.80
2022-08-04T17:10:31.573Z,28.80
2022-08-04T17:12:35.489Z,28.80
2022-08-04T17:14:39.048Z,28.80
2022-08-04T17:16:43.187Z,28.70
2022-08-04T17:21:08.723Z,28.50
2022-08-04T17:24:14.101Z,28.50
2022-08-04T17:25:52.787Z,28.50
2022-08-04T17:28:19.547Z,28.50
2022-08-04T17:30:26.025Z,28.70
2022-08-04T17:32:29.722Z,28.70
2022-08-04T17:34:33.345Z,28.80
2022-08-04T17:36:38.332Z,29.10
2022-08-04T17:38:44.979Z,29.10
2022-08-04T17:40:57.248Z,29.30
2022-08-04T17:44:04.019Z,29.50
2022-08-04T17:47:18.555Z,29.70
2022-08-04T17:49:22.565Z,29.70
2022-08-04T17:52:04.501Z,29.50
2022-08-04T17:54:01.500Z,29.40
2022-08-04T17:55:47.315Z,29.30
2022-08-04T18:00:23.806Z,29.30
2022-08-04T18:02:33.007Z,29.50
2022-08-04T18:04:39.001Z,29.60
2022-08-04T18:09:22.686Z,29.70
2022-08-04T18:11:18.806Z,29.70
2022-08-04T18:13:25.646Z,29.70
2022-08-04T18:15:40.747Z,29.60
2022-08-04T18:18:21.274Z,29.60
2022-08-04T18:19:52.100Z,29.50
2022-08-04T18:22:00.500Z,29.40
2022-08-04T18:24:03.043Z,29.40
2022-08-04T18:28:27.026Z,29.20
2022-08-04T18:30:36.512Z,29.00
2022-08-04T18:32:35.162Z,28.90
2022-08-04T18:34:40.980Z,28.60
2022-08-04T18:36:57.293Z,28.40
2022-08-04T18:38:55.783Z,28.30
2022-08-04T18:40:57.936Z,28.10
2022-08-04T18:43:03.639Z,27.90
2022-08-04T18:45:09.240Z,27.70
2022-08-04T18:47:28.986Z,27.60
2022-08-04T18:50:40.109Z,27.40
2022-08-04T18:51:25.186Z,27.20
2022-08-04T18:53:34.896Z,27.10
2022-08-04T18:55:56.742Z,26.90
2022-08-04T18:57:59.230Z,26.80
2022-08-04T18:59:46.508Z,26.60
2022-08-04T19:02:13.662Z,26.50
2022-08-04T19:03:57.829Z,26.40
2022-08-04T19:06:02.062Z,26.30
2022-08-04T19:10:26.413Z,26.20
2022-08-04T19:12:28.448Z,26.10
2022-08-04T19:14:32.394Z,26.00
2022-08-04T19:16:37.630Z,25.90
2022-08-04T19:18:43.043Z,25.90
2022-08-04T19:20:49.079Z,25.80
2022-08-04T19:24:30.584Z,25.70
2022-08-04T19:24:58.531Z,25.70
2022-08-04T19:27:06.738Z,25.60
2022-08-04T19:29:09.001Z,25.60
2022-08-04T19:33:55.374Z,25.40
2022-08-04T19:35:34.811Z,25.40
2022-08-04T19:37:56.829Z,25.30
2022-08-04T19:39:47.987Z,25.20
2022-08-04T19:42:04.423Z,25.20
2022-08-04T19:43:57.075Z,25.10
2022-08-04T19:46:00.833Z,25.00
2022-08-04T19:50:24.053Z,24.90
2022-08-04T19:52:34.176Z,24.90
2022-08-04T19:54:33.418Z,24.80
2022-08-04T20:00:51.267Z,24.80
2022-08-04T20:02:55.058Z,24.80
2022-08-04T20:04:58.588Z,24.90
2022-08-04T20:07:02.218Z,24.80
2022-08-04T20:09:24.868Z,24.80
2022-08-04T20:11:11.550Z,24.80
2022-08-04T20:13:15.390Z,24.80
2022-08-04T20:15:19.000Z,24.80
2022-08-04T20:17:22.851Z,24.80
2022-08-04T20:19:28.295Z,24.70
2022-08-04T20:21:53.525Z,24.80
2022-08-04T20:23:48.413Z,24.60
2022-08-04T20:25:45.487Z,24.60
2022-08-04T20:27:59.406Z,24.50
2022-08-04T20:29:56.277Z,24.40
2022-08-04T20:32:05.558Z,24.40
2022-08-04T20:34:05.749Z,24.40
2022-08-04T20:36:09.920Z,24.40
2022-08-04T20:38:33.370Z,24.40
2022-08-04T20:42:54.465Z,24.50
2022-08-04T20:44:59.811Z,24.50
2022-08-04T20:47:05.208Z,24.50
2022-08-04T20:51:32.216Z,24.40
2022-08-04T20:53:52.832Z,24.40
2022-08-04T20:55:54.585Z,24.40
2022-08-04T20:57:49.623Z,24.40
2022-08-04T20:59:59.726Z,24.40
2022-08-04T21:01:56.209Z,24.40
2022-08-04T21:04:27.867Z,24.40
2022-08-04T21:06:23.311Z,24.40
2022-08-04T21:08:27.742Z,24.30
2022-08-04T21:10:31.632Z,24.20
2022-08-04T21:12:35.246Z,24.20
2022-08-04T21:16:57.963Z,24.10
2022-08-04T21:19:04.012Z,24.10
2022-08-04T21:21:07.332Z,24.10
2022-08-04T21:23:12.636Z,24.10
2022-08-04T21:25:16.648Z,24.20
2022-08-04T21:29:36.878Z,24.10
2022-08-04T21:33:56.138Z,24.00
2022-08-04T21:35:59.785Z,24.00
2022-08-04T21:38:03.362Z,23.90
2022-08-04T21:40:32.563Z,23.80
2022-08-04T21:42:28.803Z,23.90
2022-08-04T21:44:31.876Z,23.80
2022-08-04T21:46:42.470Z,23.80
2022-08-04T21:50:57.590Z,23.70
2022-08-04T21:53:01.196Z,23.60
2022-08-04T21:55:05.681Z,23.50
2022-08-04T21:57:11.053Z,23.40
2022-08-04T21:59:14.694Z,23.40
2022-08-04T22:01:49.887Z,23.20
2022-08-04T22:03:51.923Z,23.10
2022-08-04T22:05:29.478Z,23.10
2022-08-04T22:07:50.836Z,23.00
2022-08-04T22:09:41.346Z,23.00
2022-08-04T22:11:49.160Z,22.90
2022-08-04T22:13:52.416Z,22.80
2022-08-04T22:16:04.996Z,22.70
2022-08-04T22:18:04.357Z,22.70
2022-08-04T22:20:27.778Z,22.60
2022-08-04T22:22:25.441Z,22.60
2022-08-04T22:24:21.147Z,22.50
2022-08-04T22:28:40.909Z,22.50
2022-08-04T22:33:05.365Z,22.60
2022-08-04T22:35:36.512Z,22.60
2022-08-04T22:37:16.227Z,22.50
2022-08-04T22:41:48.503Z,22.40
2022-08-04T22:46:01.860Z,22.40
2022-08-04T22:48:32.046Z,22.40
2022-08-04T22:50:41.684Z,22.40
2022-08-04T22:52:55.983Z,22.40
2022-08-04T22:54:53.002Z,22.30
2022-08-04T22:56:56.903Z,22.40
2022-08-04T22:59:00.485Z,22.40
2022-08-04T23:01:04.620Z,22.30
2022-08-04T23:03:11.185Z,22.30
2022-08-04T23:05:15.819Z,22.30
2022-08-04T23:09:50.426Z,22.20
2022-08-04T23:11:43.338Z,22.20
2022-08-04T23:13:48.937Z,22.20
2022-08-04T23:15:52.707Z,22.20
2022-08-04T23:17:56.779Z,22.10
2022-08-04T23:20:00.417Z,22.10
2022-08-04T23:22:04.288Z,22.10
2022-08-04T23:24:08.656Z,22.10
2022-08-04T23:26:14.358Z,22.10
2022-08-04T23:28:18.136Z,22.00
2022-08-04T23:32:38.416Z,22.00
2022-08-04T23:34:41.971Z,22.00
2022-08-04T23:36:47.469Z,22.00
2022-08-04T23:38:51.182Z,22.00
2022-08-04T23:40:54.763Z,22.00
2022-08-04T23:42:58.399Z,22.10
2022-08-04T23:45:02.196Z,22.10
2022-08-04T23:47:07.112Z,22.10
2022-08-04T23:49:10.585Z,22.10
2022-08-04T23:51:15.979Z,22.10
2022-08-04T23:53:22.732Z,22.10
2022-08-04T23:55:25.961Z,22.00
2022-08-04T23:59:51.989Z,22.00
